sensor_id;sensor_type;location;lat;lon;timestamp;P1;durP1;ratioP1;P2;durP2;ratioP2
21800;SDS011;11062;51.164;16.924;2022-07-29T00:00:41;31.70;;;4.65;;
21800;SDS011;11062;51.164;16.924;2022-07-29T00:03:11;24.85;;;4.25;;
21800;SDS011;11062;51.164;16.924;2022-07-29T00:05:40;37.35;;;5.30;;
21800;SDS011;11062;51.164;16.924;2022-07-29T00:08:07;37.78;;;5.13;;
21800;SDS011;11062;51.164;16.924;2022-07-29T00:10:34;38.70;;;5.47;;
21800;SDS011;11062;51.164;16.924;2022-07-29T00:13:00;27.98;;;4.50;;
21800;SDS011;11062;51.164;16.924;2022-07-29T00:15:26;24.45;;;4.00;;
21800;SDS011;11062;51.164;16.924;2022-07-29T00:17:52;24.85;;;3.55;;
21800;SDS011;11062;51.164;16.924;2022-07-29T00:20:18;19.15;;;3.40;;
21800;SDS011;11062;51.164;16.924;2022-07-29T00:22:44;20.23;;;3.67;;
21800;SDS011;11062;51.164;16.924;2022-07-29T00:25:11;21.85;;;3.88;;
21800;SDS011;11062;51.164;16.924;2022-07-29T00:27:38;14.90;;;3.47;;
21800;SDS011;11062;51.164;16.924;2022-07-29T00:30:05;26.55;;;4.43;;
21800;SDS011;11062;51.164;16.924;2022-07-29T00:32:32;25.55;;;4.30;;
21800;SDS011;11062;51.164;16.924;2022-07-29T00:34:58;19.10;;;3.40;;
21800;SDS011;11062;51.164;16.924;2022-07-29T00:37:42;29.55;;;4.57;;
21800;SDS011;11062;51.164;16.924;2022-07-29T00:40:08;27.15;;;4.05;;
21800;SDS011;11062;51.164;16.924;2022-07-29T00:42:44;21.60;;;3.58;;
21800;SDS011;11062;51.164;16.924;2022-07-29T00:45:11;27.67;;;3.92;;
21800;SDS011;11062;51.164;16.924;2022-07-29T00:47:37;19.23;;;3.22;;
21800;SDS011;11062;51.164;16.924;2022-07-29T00:50:04;26.80;;;4.22;;
21800;SDS011;11062;51.164;16.924;2022-07-29T00:52:32;18.77;;;3.03;;
21800;SDS011;11062;51.164;16.924;2022-07-29T00:54:59;19.88;;;3.58;;
21800;SDS011;11062;51.164;16.924;2022-07-29T00:57:25;31.52;;;4.38;;
21800;SDS011;11062;51.164;16.924;2022-07-29T00:59:51;23.10;;;3.78;;
21800;SDS011;11062;51.164;16.924;2022-07-29T01:02:16;31.30;;;4.75;;
21800;SDS011;11062;51.164;16.924;2022-07-29T01:04:42;35.92;;;5.55;;
21800;SDS011;11062;51.164;16.924;2022-07-29T01:07:08;36.45;;;5.00;;
21800;SDS011;11062;51.164;16.924;2022-07-29T01:09:34;37.45;;;5.30;;
21800;SDS011;11062;51.164;16.924;2022-07-29T01:12:01;36.58;;;5.00;;
21800;SDS011;11062;51.164;16.924;2022-07-29T01:14:28;36.47;;;5.13;;
21800;SDS011;11062;51.164;16.924;2022-07-29T01:16:58;39.15;;;5.35;;
21800;SDS011;11062;51.164;16.924;2022-07-29T01:19:39;29.73;;;4.32;;
21800;SDS011;11062;51.164;16.924;2022-07-29T01:22:27;33.63;;;4.82;;
21800;SDS011;11062;51.164;16.924;2022-07-29T01:30:15;37.10;;;5.28;;
21800;SDS011;11062;51.164;16.924;2022-07-29T01:32:42;41.75;;;5.32;;
21800;SDS011;11062;51.164;16.924;2022-07-29T01:35:20;32.60;;;4.68;;
21800;SDS011;11062;51.164;16.924;2022-07-29T01:37:51;22.73;;;4.25;;
21800;SDS011;11062;51.164;16.924;2022-07-29T01:40:29;21.60;;;3.88;;
21800;SDS011;11062;51.164;16.924;2022-07-29T01:43:03;25.60;;;3.90;;
21800;SDS011;11062;51.164;16.924;2022-07-29T01:45:48;36.78;;;5.18;;
21800;SDS011;11062;51.164;16.924;2022-07-29T01:48:19;33.03;;;4.63;;
21800;SDS011;11062;51.164;16.924;2022-07-29T01:50:49;32.83;;;4.63;;
21800;SDS011;11062;51.164;16.924;2022-07-29T01:54:01;32.10;;;4.57;;
21800;SDS011;11062;51.164;16.924;2022-07-29T01:56:11;36.05;;;5.00;;
21800;SDS011;11062;51.164;16.924;2022-07-29T01:58:39;35.20;;;5.20;;
21800;SDS011;11062;51.164;16.924;2022-07-29T02:01:06;35.58;;;4.80;;
21800;SDS011;11062;51.164;16.924;2022-07-29T02:03:34;39.70;;;5.45;;
21800;SDS011;11062;51.164;16.924;2022-07-29T02:06:03;35.20;;;4.45;;
21800;SDS011;11062;51.164;16.924;2022-07-29T02:08:31;48.90;;;6.30;;
21800;SDS011;11062;51.164;16.924;2022-07-29T02:10:59;35.55;;;5.43;;
21800;SDS011;11062;51.164;16.924;2022-07-29T02:13:27;29.05;;;4.50;;
21800;SDS011;11062;51.164;16.924;2022-07-29T02:15:54;35.95;;;5.43;;
21800;SDS011;11062;51.164;16.924;2022-07-29T02:18:22;29.20;;;4.45;;
21800;SDS011;11062;51.164;16.924;2022-07-29T02:20:51;35.58;;;4.80;;
21800;SDS011;11062;51.164;16.924;2022-07-29T02:23:20;33.00;;;4.82;;
21800;SDS011;11062;51.164;16.924;2022-07-29T02:25:56;37.70;;;4.90;;
21800;SDS011;11062;51.164;16.924;2022-07-29T02:28:28;39.90;;;5.38;;
21800;SDS011;11062;51.164;16.924;2022-07-29T02:30:57;41.75;;;5.25;;
21800;SDS011;11062;51.164;16.924;2022-07-29T02:33:27;39.03;;;5.38;;
21800;SDS011;11062;51.164;16.924;2022-07-29T02:35:56;25.10;;;4.30;;
21800;SDS011;11062;51.164;16.924;2022-07-29T02:38:23;33.78;;;4.82;;
21800;SDS011;11062;51.164;16.924;2022-07-29T02:41:13;44.42;;;5.32;;
21800;SDS011;11062;51.164;16.924;2022-07-29T02:43:43;46.65;;;5.90;;
21800;SDS011;11062;51.164;16.924;2022-07-29T02:46:13;33.90;;;4.47;;
21800;SDS011;11062;51.164;16.924;2022-07-29T02:48:44;35.00;;;4.55;;
21800;SDS011;11062;51.164;16.924;2022-07-29T02:51:25;26.60;;;4.18;;
21800;SDS011;11062;51.164;16.924;2022-07-29T02:53:57;40.63;;;5.18;;
21800;SDS011;11062;51.164;16.924;2022-07-29T02:56:28;25.05;;;3.92;;
21800;SDS011;11062;51.164;16.924;2022-07-29T02:59:01;25.35;;;3.88;;
21800;SDS011;11062;51.164;16.924;2022-07-29T03:01:31;41.95;;;5.65;;
21800;SDS011;11062;51.164;16.924;2022-07-29T03:04:00;29.27;;;4.15;;
21800;SDS011;11062;51.164;16.924;2022-07-29T03:06:29;33.08;;;4.78;;
21800;SDS011;11062;51.164;16.924;2022-07-29T03:08:57;36.58;;;5.05;;
21800;SDS011;11062;51.164;16.924;2022-07-29T03:11:25;32.85;;;4.90;;
21800;SDS011;11062;51.164;16.924;2022-07-29T03:13:51;37.70;;;4.70;;
21800;SDS011;11062;51.164;16.924;2022-07-29T03:16:18;30.10;;;4.75;;
21800;SDS011;11062;51.164;16.924;2022-07-29T03:18:45;35.30;;;5.13;;
21800;SDS011;11062;51.164;16.924;2022-07-29T03:21:11;28.38;;;4.45;;
21800;SDS011;11062;51.164;16.924;2022-07-29T03:23:37;38.30;;;5.10;;
21800;SDS011;11062;51.164;16.924;2022-07-29T03:26:12;37.55;;;5.47;;
21800;SDS011;11062;51.164;16.924;2022-07-29T03:28:38;41.53;;;5.55;;
21800;SDS011;11062;51.164;16.924;2022-07-29T03:31:04;21.30;;;3.85;;
21800;SDS011;11062;51.164;16.924;2022-07-29T03:33:30;18.65;;;3.47;;
21800;SDS011;11062;51.164;16.924;2022-07-29T03:35:56;32.47;;;4.82;;
21800;SDS011;11062;51.164;16.924;2022-07-29T03:38:23;30.90;;;4.65;;
21800;SDS011;11062;51.164;16.924;2022-07-29T03:41:03;37.42;;;5.10;;
21800;SDS011;11062;51.164;16.924;2022-07-29T03:43:34;30.60;;;4.55;;
21800;SDS011;11062;51.164;16.924;2022-07-29T03:46:03;30.15;;;4.55;;
21800;SDS011;11062;51.164;16.924;2022-07-29T03:48:32;36.17;;;5.70;;
21800;SDS011;11062;51.164;16.924;2022-07-29T03:51:00;29.80;;;4.80;;
21800;SDS011;11062;51.164;16.924;2022-07-29T03:53:26;37.85;;;5.55;;
21800;SDS011;11062;51.164;16.924;2022-07-29T03:55:54;31.02;;;4.50;;
21800;SDS011;11062;51.164;16.924;2022-07-29T03:58:24;33.47;;;4.95;;
21800;SDS011;11062;51.164;16.924;2022-07-29T04:00:52;34.63;;;4.95;;
21800;SDS011;11062;51.164;16.924;2022-07-29T04:03:20;40.72;;;5.55;;
21800;SDS011;11062;51.164;16.924;2022-07-29T04:05:57;25.15;;;4.30;;
21800;SDS011;11062;51.164;16.924;2022-07-29T04:08:32;23.88;;;4.38;;
21800;SDS011;11062;51.164;16.924;2022-07-29T04:10:59;32.90;;;5.07;;
21800;SDS011;11062;51.164;16.924;2022-07-29T04:13:26;41.50;;;5.93;;
21800;SDS011;11062;51.164;16.924;2022-07-29T04:15:52;38.10;;;5.68;;
21800;SDS011;11062;51.164;16.924;2022-07-29T04:18:17;37.05;;;5.93;;
21800;SDS011;11062;51.164;16.924;2022-07-29T04:20:43;48.38;;;6.47;;
21800;SDS011;11062;51.164;16.924;2022-07-29T04:23:09;40.45;;;5.82;;
21800;SDS011;11062;51.164;16.924;2022-07-29T04:25:41;40.85;;;6.15;;
21800;SDS011;11062;51.164;16.924;2022-07-29T04:28:08;26.65;;;4.82;;
21800;SDS011;11062;51.164;16.924;2022-07-29T04:30:35;36.45;;;5.22;;
21800;SDS011;11062;51.164;16.924;2022-07-29T04:33:03;41.85;;;6.63;;
21800;SDS011;11062;51.164;16.924;2022-07-29T04:35:32;37.03;;;5.65;;
21800;SDS011;11062;51.164;16.924;2022-07-29T04:38:00;33.30;;;5.25;;
21800;SDS011;11062;51.164;16.924;2022-07-29T04:40:27;37.80;;;6.35;;
21800;SDS011;11062;51.164;16.924;2022-07-29T04:42:53;37.78;;;5.78;;
21800;SDS011;11062;51.164;16.924;2022-07-29T04:45:18;33.75;;;5.20;;
21800;SDS011;11062;51.164;16.924;2022-07-29T04:47:44;40.20;;;5.88;;
21800;SDS011;11062;51.164;16.924;2022-07-29T04:50:10;26.60;;;4.88;;
21800;SDS011;11062;51.164;16.924;2022-07-29T04:52:36;28.45;;;4.53;;
21800;SDS011;11062;51.164;16.924;2022-07-29T04:55:03;32.45;;;4.25;;
21800;SDS011;11062;51.164;16.924;2022-07-29T04:57:30;20.58;;;4.60;;
21800;SDS011;11062;51.164;16.924;2022-07-29T04:59:56;22.35;;;4.25;;
21800;SDS011;11062;51.164;16.924;2022-07-29T05:02:22;20.65;;;4.07;;
21800;SDS011;11062;51.164;16.924;2022-07-29T05:04:48;33.50;;;5.50;;
21800;SDS011;11062;51.164;16.924;2022-07-29T05:07:14;44.33;;;6.22;;
21800;SDS011;11062;51.164;16.924;2022-07-29T05:09:40;72.32;;;9.55;;
21800;SDS011;11062;51.164;16.924;2022-07-29T05:12:11;69.32;;;8.65;;
21800;SDS011;11062;51.164;16.924;2022-07-29T05:14:37;40.10;;;5.50;;
21800;SDS011;11062;51.164;16.924;2022-07-29T05:17:44;42.40;;;5.93;;
21800;SDS011;11062;51.164;16.924;2022-07-29T05:21:29;27.70;;;4.55;;
21800;SDS011;11062;51.164;16.924;2022-07-29T05:25:07;38.72;;;5.82;;
21800;SDS011;11062;51.164;16.924;2022-07-29T05:28:37;33.95;;;5.20;;
21800;SDS011;11062;51.164;16.924;2022-07-29T05:31:06;33.58;;;5.35;;
21800;SDS011;11062;51.164;16.924;2022-07-29T05:33:33;32.13;;;4.68;;
21800;SDS011;11062;51.164;16.924;2022-07-29T05:36:04;30.13;;;4.90;;
21800;SDS011;11062;51.164;16.924;2022-07-29T05:38:33;25.08;;;4.40;;
21800;SDS011;11062;51.164;16.924;2022-07-29T05:41:12;32.50;;;5.22;;
21800;SDS011;11062;51.164;16.924;2022-07-29T05:43:41;29.55;;;4.53;;
21800;SDS011;11062;51.164;16.924;2022-07-29T05:46:21;29.80;;;4.75;;
21800;SDS011;11062;51.164;16.924;2022-07-29T05:48:47;27.50;;;4.57;;
21800;SDS011;11062;51.164;16.924;2022-07-29T05:51:14;29.10;;;4.75;;
21800;SDS011;11062;51.164;16.924;2022-07-29T05:53:40;29.52;;;4.30;;
21800;SDS011;11062;51.164;16.924;2022-07-29T05:56:06;30.98;;;4.85;;
21800;SDS011;11062;51.164;16.924;2022-07-29T05:58:39;31.25;;;5.05;;
21800;SDS011;11062;51.164;16.924;2022-07-29T06:01:51;10.18;;;2.53;;
21800;SDS011;11062;51.164;16.924;2022-07-29T06:04:17;15.50;;;3.08;;
21800;SDS011;11062;51.164;16.924;2022-07-29T06:06:47;15.82;;;3.50;;
21800;SDS011;11062;51.164;16.924;2022-07-29T06:09:13;23.08;;;3.97;;
21800;SDS011;11062;51.164;16.924;2022-07-29T06:15:19;31.48;;;4.82;;
21800;SDS011;11062;51.164;16.924;2022-07-29T06:17:45;25.10;;;4.55;;
21800;SDS011;11062;51.164;16.924;2022-07-29T06:20:13;26.70;;;4.88;;
21800;SDS011;11062;51.164;16.924;2022-07-29T06:22:39;15.13;;;3.30;;
21800;SDS011;11062;51.164;16.924;2022-07-29T06:25:05;21.95;;;3.95;;
21800;SDS011;11062;51.164;16.924;2022-07-29T06:27:31;20.60;;;4.10;;
21800;SDS011;11062;51.164;16.924;2022-07-29T06:29:57;33.65;;;4.25;;
21800;SDS011;11062;51.164;16.924;2022-07-29T06:32:23;17.83;;;3.30;;
21800;SDS011;11062;51.164;16.924;2022-07-29T06:34:49;33.15;;;3.70;;
21800;SDS011;11062;51.164;16.924;2022-07-29T06:37:16;16.63;;;3.35;;
21800;SDS011;11062;51.164;16.924;2022-07-29T06:39:42;16.75;;;3.20;;
21800;SDS011;11062;51.164;16.924;2022-07-29T06:42:08;21.25;;;3.45;;
21800;SDS011;11062;51.164;16.924;2022-07-29T06:44:34;19.80;;;3.00;;
21800;SDS011;11062;51.164;16.924;2022-07-29T06:47:00;15.85;;;2.88;;
21800;SDS011;11062;51.164;16.924;2022-07-29T06:49:29;28.75;;;4.55;;
21800;SDS011;11062;51.164;16.924;2022-07-29T06:51:55;25.60;;;4.07;;
21800;SDS011;11062;51.164;16.924;2022-07-29T06:54:21;16.52;;;3.05;;
21800;SDS011;11062;51.164;16.924;2022-07-29T06:56:47;15.13;;;3.17;;
21800;SDS011;11062;51.164;16.924;2022-07-29T06:59:13;20.10;;;3.60;;
21800;SDS011;11062;51.164;16.924;2022-07-29T07:01:42;21.23;;;3.58;;
21800;SDS011;11062;51.164;16.924;2022-07-29T07:04:08;14.35;;;2.97;;
21800;SDS011;11062;51.164;16.924;2022-07-29T07:06:35;19.20;;;3.40;;
21800;SDS011;11062;51.164;16.924;2022-07-29T07:09:02;19.92;;;3.22;;
21800;SDS011;11062;51.164;16.924;2022-07-29T07:11:29;18.65;;;3.45;;
21800;SDS011;11062;51.164;16.924;2022-07-29T07:13:54;19.30;;;3.53;;
21800;SDS011;11062;51.164;16.924;2022-07-29T07:16:20;29.85;;;4.60;;
21800;SDS011;11062;51.164;16.924;2022-07-29T07:18:46;33.75;;;4.65;;
21800;SDS011;11062;51.164;16.924;2022-07-29T07:21:12;16.35;;;2.90;;
21800;SDS011;11062;51.164;16.924;2022-07-29T07:23:38;28.70;;;3.92;;
21800;SDS011;11062;51.164;16.924;2022-07-29T07:26:04;15.73;;;2.90;;
21800;SDS011;11062;51.164;16.924;2022-07-29T07:28:30;21.88;;;3.20;;
21800;SDS011;11062;51.164;16.924;2022-07-29T07:30:56;22.83;;;3.75;;
21800;SDS011;11062;51.164;16.924;2022-07-29T07:33:22;20.60;;;3.70;;
21800;SDS011;11062;51.164;16.924;2022-07-29T07:35:49;17.13;;;3.08;;
21800;SDS011;11062;51.164;16.924;2022-07-29T07:38:15;21.70;;;3.45;;
21800;SDS011;11062;51.164;16.924;2022-07-29T07:40:41;25.42;;;4.13;;
21800;SDS011;11062;51.164;16.924;2022-07-29T07:43:11;19.58;;;3.20;;
21800;SDS011;11062;51.164;16.924;2022-07-29T07:45:39;21.75;;;3.83;;
21800;SDS011;11062;51.164;16.924;2022-07-29T07:48:08;21.83;;;3.78;;
21800;SDS011;11062;51.164;16.924;2022-07-29T07:50:35;21.35;;;3.42;;
21800;SDS011;11062;51.164;16.924;2022-07-29T07:53:02;25.85;;;3.85;;
21800;SDS011;11062;51.164;16.924;2022-07-29T07:55:28;33.92;;;4.60;;
21800;SDS011;11062;51.164;16.924;2022-07-29T07:57:54;14.95;;;3.28;;
21800;SDS011;11062;51.164;16.924;2022-07-29T08:00:20;13.93;;;2.78;;
21800;SDS011;11062;51.164;16.924;2022-07-29T08:02:47;29.13;;;4.68;;
21800;SDS011;11062;51.164;16.924;2022-07-29T08:05:15;21.45;;;3.55;;
21800;SDS011;11062;51.164;16.924;2022-07-29T08:07:47;16.83;;;3.08;;
21800;SDS011;11062;51.164;16.924;2022-07-29T08:10:17;26.80;;;4.13;;
21800;SDS011;11062;51.164;16.924;2022-07-29T08:13:05;23.67;;;3.75;;
21800;SDS011;11062;51.164;16.924;2022-07-29T08:15:32;19.75;;;3.20;;
21800;SDS011;11062;51.164;16.924;2022-07-29T08:17:59;18.13;;;3.30;;
21800;SDS011;11062;51.164;16.924;2022-07-29T08:20:26;18.48;;;3.38;;
21800;SDS011;11062;51.164;16.924;2022-07-29T08:22:52;17.27;;;3.17;;
21800;SDS011;11062;51.164;16.924;2022-07-29T08:25:18;32.03;;;4.75;;
21800;SDS011;11062;51.164;16.924;2022-07-29T08:27:48;32.58;;;5.32;;
21800;SDS011;11062;51.164;16.924;2022-07-29T08:30:14;13.50;;;2.97;;
21800;SDS011;11062;51.164;16.924;2022-07-29T08:32:43;17.45;;;3.13;;
21800;SDS011;11062;51.164;16.924;2022-07-29T08:35:11;16.38;;;2.92;;
21800;SDS011;11062;51.164;16.924;2022-07-29T08:37:38;24.55;;;3.63;;
21800;SDS011;11062;51.164;16.924;2022-07-29T08:40:07;15.68;;;3.10;;
21800;SDS011;11062;51.164;16.924;2022-07-29T08:42:33;16.30;;;3.20;;
21800;SDS011;11062;51.164;16.924;2022-07-29T08:44:59;23.13;;;4.38;;
21800;SDS011;11062;51.164;16.924;2022-07-29T08:47:25;45.05;;;6.70;;
21800;SDS011;11062;51.164;16.924;2022-07-29T08:49:52;26.38;;;4.22;;
21800;SDS011;11062;51.164;16.924;2022-07-29T08:52:18;24.10;;;4.13;;
21800;SDS011;11062;51.164;16.924;2022-07-29T08:54:46;22.55;;;3.92;;
21800;SDS011;11062;51.164;16.924;2022-07-29T08:57:14;19.42;;;3.35;;
21800;SDS011;11062;51.164;16.924;2022-07-29T08:59:43;28.15;;;4.75;;
21800;SDS011;11062;51.164;16.924;2022-07-29T09:02:19;38.65;;;5.45;;
21800;SDS011;11062;51.164;16.924;2022-07-29T09:04:46;21.73;;;4.10;;
21800;SDS011;11062;51.164;16.924;2022-07-29T09:07:16;25.88;;;4.18;;
21800;SDS011;11062;51.164;16.924;2022-07-29T09:09:43;15.73;;;3.58;;
21800;SDS011;11062;51.164;16.924;2022-07-29T09:12:10;15.63;;;3.17;;
21800;SDS011;11062;51.164;16.924;2022-07-29T09:14:39;36.33;;;5.60;;
21800;SDS011;11062;51.164;16.924;2022-07-29T09:17:06;17.85;;;3.50;;
21800;SDS011;11062;51.164;16.924;2022-07-29T09:19:33;23.52;;;4.28;;
21800;SDS011;11062;51.164;16.924;2022-07-29T09:22:01;31.48;;;5.05;;
21800;SDS011;11062;51.164;16.924;2022-07-29T09:24:45;26.20;;;3.97;;
21800;SDS011;11062;51.164;16.924;2022-07-29T09:27:24;24.50;;;4.40;;
21800;SDS011;11062;51.164;16.924;2022-07-29T09:30:04;24.02;;;3.90;;
21800;SDS011;11062;51.164;16.924;2022-07-29T09:32:32;30.83;;;5.03;;
21800;SDS011;11062;51.164;16.924;2022-07-29T09:35:24;17.38;;;3.28;;
21800;SDS011;11062;51.164;16.924;2022-07-29T09:37:51;13.95;;;2.75;;
21800;SDS011;11062;51.164;16.924;2022-07-29T09:40:22;14.95;;;3.33;;
21800;SDS011;11062;51.164;16.924;2022-07-29T09:42:51;20.13;;;3.72;;
21800;SDS011;11062;51.164;16.924;2022-07-29T09:45:32;12.20;;;2.83;;
21800;SDS011;11062;51.164;16.924;2022-07-29T09:47:59;20.33;;;3.90;;
21800;SDS011;11062;51.164;16.924;2022-07-29T09:50:38;13.25;;;3.25;;
21800;SDS011;11062;51.164;16.924;2022-07-29T09:53:06;30.40;;;5.60;;
21800;SDS011;11062;51.164;16.924;2022-07-29T09:55:31;28.33;;;4.63;;
21800;SDS011;11062;51.164;16.924;2022-07-29T09:58:27;49.53;;;6.97;;
21800;SDS011;11062;51.164;16.924;2022-07-29T10:00:53;35.97;;;5.45;;
21800;SDS011;11062;51.164;16.924;2022-07-29T10:03:20;35.00;;;5.40;;
21800;SDS011;11062;51.164;16.924;2022-07-29T10:05:47;32.75;;;4.78;;
21800;SDS011;11062;51.164;16.924;2022-07-29T10:08:30;28.92;;;5.03;;
21800;SDS011;11062;51.164;16.924;2022-07-29T10:11:13;33.35;;;5.35;;
21800;SDS011;11062;51.164;16.924;2022-07-29T10:13:41;26.63;;;4.30;;
21800;SDS011;11062;51.164;16.924;2022-07-29T10:16:08;27.48;;;5.03;;
21800;SDS011;11062;51.164;16.924;2022-07-29T10:18:35;31.50;;;4.85;;
21800;SDS011;11062;51.164;16.924;2022-07-29T10:21:03;28.88;;;4.97;;
21800;SDS011;11062;51.164;16.924;2022-07-29T10:23:29;38.90;;;6.43;;
21800;SDS011;11062;51.164;16.924;2022-07-29T10:25:56;33.22;;;5.32;;
21800;SDS011;11062;51.164;16.924;2022-07-29T10:28:23;25.90;;;5.03;;
21800;SDS011;11062;51.164;16.924;2022-07-29T10:30:50;24.08;;;4.88;;
21800;SDS011;11062;51.164;16.924;2022-07-29T10:39:19;25.90;;;5.90;;
21800;SDS011;11062;51.164;16.924;2022-07-29T10:42:15;30.08;;;6.10;;
21800;SDS011;11062;51.164;16.924;2022-07-29T10:44:48;31.02;;;6.50;;
21800;SDS011;11062;51.164;16.924;2022-07-29T10:49:57;29.55;;;6.38;;
21800;SDS011;11062;51.164;16.924;2022-07-29T10:55:35;19.42;;;4.25;;
21800;SDS011;11062;51.164;16.924;2022-07-29T10:58:19;17.35;;;4.45;;
21800;SDS011;11062;51.164;16.924;2022-07-29T11:00:51;20.88;;;4.72;;
21800;SDS011;11062;51.164;16.924;2022-07-29T11:06:06;38.20;;;7.95;;
21800;SDS011;11062;51.164;16.924;2022-07-29T11:08:35;28.90;;;6.28;;
21800;SDS011;11062;51.164;16.924;2022-07-29T11:13:47;22.60;;;6.18;;
21800;SDS011;11062;51.164;16.924;2022-07-29T11:16:19;22.13;;;5.25;;
21800;SDS011;11062;51.164;16.924;2022-07-29T11:21:37;30.95;;;8.80;;
21800;SDS011;11062;51.164;16.924;2022-07-29T11:24:12;26.67;;;4.63;;
21800;SDS011;11062;51.164;16.924;2022-07-29T11:26:39;26.27;;;6.40;;
21800;SDS011;11062;51.164;16.924;2022-07-29T11:29:53;26.50;;;7.47;;
21800;SDS011;11062;51.164;16.924;2022-07-29T11:32:20;26.50;;;5.90;;
21800;SDS011;11062;51.164;16.924;2022-07-29T11:37:43;13.15;;;5.00;;
21800;SDS011;11062;51.164;16.924;2022-07-29T11:40:15;16.58;;;4.43;;
21800;SDS011;11062;51.164;16.924;2022-07-29T11:42:45;19.25;;;5.18;;
21800;SDS011;11062;51.164;16.924;2022-07-29T11:45:17;21.10;;;5.13;;
21800;SDS011;11062;51.164;16.924;2022-07-29T11:50:41;13.38;;;4.72;;
21800;SDS011;11062;51.164;16.924;2022-07-29T11:53:11;23.88;;;5.63;;
21800;SDS011;11062;51.164;16.924;2022-07-29T11:55:42;20.40;;;4.78;;
21800;SDS011;11062;51.164;16.924;2022-07-29T11:59:10;19.92;;;4.70;;
21800;SDS011;11062;51.164;16.924;2022-07-29T12:01:51;13.88;;;4.38;;
21800;SDS011;11062;51.164;16.924;2022-07-29T12:04:50;10.38;;;4.55;;
21800;SDS011;11062;51.164;16.924;2022-07-29T12:10:05;10.35;;;3.58;;
21800;SDS011;11062;51.164;16.924;2022-07-29T12:12:32;7.15;;;2.72;;
21800;SDS011;11062;51.164;16.924;2022-07-29T12:15:15;11.88;;;3.53;;
21800;SDS011;11062;51.164;16.924;2022-07-29T12:17:45;8.38;;;2.97;;
21800;SDS011;11062;51.164;16.924;2022-07-29T12:20:11;15.43;;;3.67;;
21800;SDS011;11062;51.164;16.924;2022-07-29T12:22:42;7.63;;;2.95;;
21800;SDS011;11062;51.164;16.924;2022-07-29T12:25:12;16.77;;;3.70;;
21800;SDS011;11062;51.164;16.924;2022-07-29T12:27:46;8.57;;;2.90;;
21800;SDS011;11062;51.164;16.924;2022-07-29T12:30:13;15.63;;;3.70;;
21800;SDS011;11062;51.164;16.924;2022-07-29T12:32:47;38.75;;;5.25;;
21800;SDS011;11062;51.164;16.924;2022-07-29T12:35:18;22.02;;;4.03;;
21800;SDS011;11062;51.164;16.924;2022-07-29T12:37:45;16.58;;;3.80;;
21800;SDS011;11062;51.164;16.924;2022-07-29T12:40:17;8.15;;;2.92;;
21800;SDS011;11062;51.164;16.924;2022-07-29T12:55:45;24.73;;;5.07;;
21800;SDS011;11062;51.164;16.924;2022-07-29T13:01:35;25.45;;;5.53;;
21800;SDS011;11062;51.164;16.924;2022-07-29T13:04:02;44.90;;;6.85;;
21800;SDS011;11062;51.164;16.924;2022-07-29T13:09:22;22.27;;;4.88;;
21800;SDS011;11062;51.164;16.924;2022-07-29T13:12:07;11.77;;;3.53;;
21800;SDS011;11062;51.164;16.924;2022-07-29T13:14:36;17.42;;;4.03;;
21800;SDS011;11062;51.164;16.924;2022-07-29T13:17:07;14.73;;;3.33;;
21800;SDS011;11062;51.164;16.924;2022-07-29T13:19:34;8.32;;;2.67;;
21800;SDS011;11062;51.164;16.924;2022-07-29T13:22:24;26.60;;;5.50;;
21800;SDS011;11062;51.164;16.924;2022-07-29T13:25:02;19.38;;;4.65;;
21800;SDS011;11062;51.164;16.924;2022-07-29T13:33:18;14.77;;;4.03;;
21800;SDS011;11062;51.164;16.924;2022-07-29T13:38:20;18.02;;;3.83;;
21800;SDS011;11062;51.164;16.924;2022-07-29T13:40:46;19.25;;;3.78;;
21800;SDS011;11062;51.164;16.924;2022-07-29T13:43:12;24.75;;;5.10;;
21800;SDS011;11062;51.164;16.924;2022-07-29T13:45:39;25.92;;;5.13;;
21800;SDS011;11062;51.164;16.924;2022-07-29T13:48:17;17.55;;;4.30;;
21800;SDS011;11062;51.164;16.924;2022-07-29T13:50:43;13.50;;;4.07;;
21800;SDS011;11062;51.164;16.924;2022-07-29T13:53:10;16.02;;;4.18;;
21800;SDS011;11062;51.164;16.924;2022-07-29T13:55:49;9.30;;;3.10;;
21800;SDS011;11062;51.164;16.924;2022-07-29T13:58:16;22.40;;;4.65;;
21800;SDS011;11062;51.164;16.924;2022-07-29T14:00:42;16.30;;;3.80;;
21800;SDS011;11062;51.164;16.924;2022-07-29T14:06:05;19.02;;;3.45;;
21800;SDS011;11062;51.164;16.924;2022-07-29T14:12:37;25.25;;;4.70;;
21800;SDS011;11062;51.164;16.924;2022-07-29T14:15:25;18.08;;;4.45;;
21800;SDS011;11062;51.164;16.924;2022-07-29T14:17:51;30.17;;;4.78;;
21800;SDS011;11062;51.164;16.924;2022-07-29T14:20:17;13.35;;;3.47;;
21800;SDS011;11062;51.164;16.924;2022-07-29T14:22:43;15.90;;;3.42;;
21800;SDS011;11062;51.164;16.924;2022-07-29T14:25:12;15.23;;;3.63;;
21800;SDS011;11062;51.164;16.924;2022-07-29T14:27:38;13.00;;;3.58;;
21800;SDS011;11062;51.164;16.924;2022-07-29T14:32:50;7.88;;;2.85;;
21800;SDS011;11062;51.164;16.924;2022-07-29T14:35:31;13.63;;;4.13;;
21800;SDS011;11062;51.164;16.924;2022-07-29T14:37:57;17.88;;;4.82;;
21800;SDS011;11062;51.164;16.924;2022-07-29T14:40:23;12.93;;;4.10;;
21800;SDS011;11062;51.164;16.924;2022-07-29T14:42:50;12.88;;;4.15;;
21800;SDS011;11062;51.164;16.924;2022-07-29T14:45:19;18.33;;;3.50;;
21800;SDS011;11062;51.164;16.924;2022-07-29T14:47:45;24.33;;;4.35;;
21800;SDS011;11062;51.164;16.924;2022-07-29T14:50:11;20.85;;;4.68;;
21800;SDS011;11062;51.164;16.924;2022-07-29T14:52:38;14.60;;;3.75;;
21800;SDS011;11062;51.164;16.924;2022-07-29T14:55:10;15.27;;;4.13;;
21800;SDS011;11062;51.164;16.924;2022-07-29T14:57:36;14.95;;;3.88;;
21800;SDS011;11062;51.164;16.924;2022-07-29T15:00:13;11.75;;;3.80;;
21800;SDS011;11062;51.164;16.924;2022-07-29T15:02:39;8.90;;;3.92;;
21800;SDS011;11062;51.164;16.924;2022-07-29T15:05:05;18.15;;;4.25;;
21800;SDS011;11062;51.164;16.924;2022-07-29T15:07:31;24.35;;;5.18;;
21800;SDS011;11062;51.164;16.924;2022-07-29T15:09:57;17.98;;;4.35;;
21800;SDS011;11062;51.164;16.924;2022-07-29T15:12:23;13.00;;;4.20;;
21800;SDS011;11062;51.164;16.924;2022-07-29T15:14:50;13.05;;;4.15;;
21800;SDS011;11062;51.164;16.924;2022-07-29T15:17:18;14.13;;;4.00;;
21800;SDS011;11062;51.164;16.924;2022-07-29T15:19:45;43.17;;;8.82;;
21800;SDS011;11062;51.164;16.924;2022-07-29T15:22:11;23.52;;;5.28;;
21800;SDS011;11062;51.164;16.924;2022-07-29T15:24:37;26.45;;;5.68;;
21800;SDS011;11062;51.164;16.924;2022-07-29T15:27:03;27.10;;;5.35;;
21800;SDS011;11062;51.164;16.924;2022-07-29T15:29:30;24.60;;;6.00;;
21800;SDS011;11062;51.164;16.924;2022-07-29T15:31:56;33.08;;;6.78;;
21800;SDS011;11062;51.164;16.924;2022-07-29T15:34:22;26.90;;;6.30;;
21800;SDS011;11062;51.164;16.924;2022-07-29T15:36:49;24.40;;;6.18;;
21800;SDS011;11062;51.164;16.924;2022-07-29T15:39:18;21.67;;;6.07;;
21800;SDS011;11062;51.164;16.924;2022-07-29T15:41:45;22.17;;;6.45;;
21800;SDS011;11062;51.164;16.924;2022-07-29T15:44:11;21.40;;;5.82;;
21800;SDS011;11062;51.164;16.924;2022-07-29T15:46:40;23.63;;;6.07;;
21800;SDS011;11062;51.164;16.924;2022-07-29T15:49:25;22.50;;;5.88;;
21800;SDS011;11062;51.164;16.924;2022-07-29T15:52:01;26.65;;;6.72;;
21800;SDS011;11062;51.164;16.924;2022-07-29T15:54:31;32.67;;;6.97;;